createdAt,value
2023-01-20T00:01:43.658Z,9.75
2023-01-20T00:04:11.208Z,12.07
2023-01-20T00:06:39.202Z,8.55
2023-01-20T00:09:07.193Z,8.57
2023-01-20T00:11:34.898Z,10.93
2023-01-20T00:14:03.563Z,9.77
2023-01-20T00:16:32.239Z,10.40
2023-01-20T00:18:59.971Z,16.42
2023-01-20T00:21:27.546Z,15.73
2023-01-20T00:23:55.341Z,11.80
2023-01-20T00:26:25.579Z,17.83
2023-01-20T00:28:57.723Z,17.38
2023-01-20T00:31:32.059Z,21.45
2023-01-20T00:34:01.558Z,18.10
2023-01-20T00:36:31.567Z,17.48
2023-01-20T00:38:59.561Z,19.50
2023-01-20T00:41:27.132Z,21.98
2023-01-20T00:43:54.653Z,18.60
2023-01-20T00:46:23.264Z,19.35
2023-01-20T00:48:50.856Z,19.48
2023-01-20T00:51:18.431Z,23.20
2023-01-20T00:53:46.021Z,22.45
2023-01-20T00:56:13.612Z,23.00
2023-01-20T00:58:44.139Z,21.48
2023-01-20T01:01:12.347Z,23.35
2023-01-20T01:03:40.207Z,21.83
2023-01-20T01:06:25.705Z,18.10
2023-01-20T01:08:53.217Z,22.48
2023-01-20T01:11:20.746Z,24.60
2023-01-20T01:13:48.220Z,25.13
2023-01-20T01:16:17.476Z,27.70
2023-01-20T01:18:45.169Z,27.17
2023-01-20T01:21:16.011Z,28.10
2023-01-20T01:23:44.408Z,31.83
2023-01-20T01:26:11.995Z,32.60
2023-01-20T01:28:39.928Z,31.83
2023-01-20T01:31:09.108Z,36.35
2023-01-20T01:33:37.254Z,36.65
2023-01-20T01:36:05.395Z,39.17
2023-01-20T01:38:33.182Z,33.63
2023-01-20T01:41:01.200Z,34.03
2023-01-20T01:43:32.239Z,35.30
2023-01-20T01:46:00.330Z,32.17
2023-01-20T01:48:45.013Z,32.03
2023-01-20T01:51:19.306Z,30.90
2023-01-20T01:53:53.772Z,33.33
2023-01-20T01:56:23.444Z,29.67
2023-01-20T01:58:55.389Z,34.38
2023-01-20T02:01:23.041Z,36.10
2023-01-20T02:04:10.999Z,35.13
2023-01-20T02:06:41.947Z,33.17
2023-01-20T02:09:09.623Z,37.05
2023-01-20T02:11:50.505Z,38.08
2023-01-20T02:14:20.310Z,38.22
2023-01-20T02:17:04.152Z,37.45
2023-01-20T02:19:56.444Z,39.92
2023-01-20T02:22:58.628Z,34.80
2023-01-20T02:26:06.958Z,46.28
2023-01-20T02:29:05.553Z,43.30
2023-01-20T02:31:45.318Z,37.75
2023-01-20T02:34:33.780Z,40.75
2023-01-20T02:37:23.135Z,46.17
2023-01-20T02:39:50.635Z,44.35
2023-01-20T02:42:28.501Z,44.97
2023-01-20T02:45:23.237Z,52.20
2023-01-20T02:48:08.293Z,55.65
2023-01-20T02:50:53.444Z,45.85
2023-01-20T02:53:24.220Z,43.30
2023-01-20T02:55:55.459Z,45.38
2023-01-20T02:58:34.685Z,49.72
2023-01-20T03:01:09.333Z,46.50
2023-01-20T03:03:41.011Z,48.97
2023-01-20T03:06:17.269Z,51.72
2023-01-20T03:08:45.892Z,50.17
2023-01-20T03:11:13.809Z,56.80
2023-01-20T03:13:48.156Z,53.97
2023-01-20T03:16:23.485Z,46.75
2023-01-20T03:18:52.679Z,52.00
2023-01-20T03:21:20.454Z,51.22
2023-01-20T03:23:51.953Z,52.58
2023-01-20T03:26:22.677Z,36.03
2023-01-20T03:28:51.103Z,52.00
2023-01-20T03:31:27.411Z,52.33
2023-01-20T03:33:58.468Z,54.58
2023-01-20T03:36:29.506Z,55.72
2023-01-20T03:38:58.810Z,56.53
2023-01-20T03:42:07.191Z,50.35
2023-01-20T03:44:59.393Z,62.42
2023-01-20T03:47:45.700Z,51.83
2023-01-20T03:50:24.225Z,50.78
2023-01-20T03:53:00.862Z,51.78
2023-01-20T03:55:43.463Z,53.40
2023-01-20T04:00:51.522Z,51.83
2023-01-20T04:03:32.327Z,56.92
2023-01-20T04:06:02.255Z,57.83
2023-01-20T04:08:34.790Z,55.80
2023-01-20T04:13:33.302Z,57.28
2023-01-20T04:16:03.186Z,52.28
2023-01-20T04:18:30.819Z,54.35
2023-01-20T04:21:02.459Z,56.45
2023-01-20T04:23:35.918Z,48.53
2023-01-20T04:26:03.715Z,59.38
2023-01-20T04:28:31.564Z,61.33
2023-01-20T04:30:59.367Z,57.05
2023-01-20T04:33:26.991Z,58.60
2023-01-20T04:35:54.492Z,65.10
2023-01-20T04:38:22.044Z,57.45
2023-01-20T04:40:49.574Z,56.38
2023-01-20T04:43:18.443Z,64.82
2023-01-20T04:45:46.016Z,67.70
2023-01-20T04:48:13.519Z,66.07
2023-01-20T04:50:41.995Z,64.90
2023-01-20T04:53:16.870Z,69.95
2023-01-20T04:55:44.486Z,62.83
2023-01-20T04:58:12.310Z,60.65
2023-01-20T05:00:39.810Z,71.45
2023-01-20T05:03:07.940Z,62.97
2023-01-20T05:05:35.605Z,74.28
2023-01-20T05:08:04.763Z,69.38
2023-01-20T05:10:33.785Z,66.40
2023-01-20T05:13:01.809Z,71.35
2023-01-20T05:15:29.375Z,73.22
2023-01-20T05:17:56.929Z,69.22
2023-01-20T05:20:24.474Z,72.95
2023-01-20T05:22:51.972Z,79.63
2023-01-20T05:25:19.704Z,73.60
2023-01-20T05:27:47.255Z,69.77
2023-01-20T05:30:15.048Z,72.40
2023-01-20T05:32:42.806Z,74.53
2023-01-20T05:35:10.696Z,75.70
2023-01-20T05:37:38.315Z,76.78
2023-01-20T05:40:06.376Z,77.60
2023-01-20T05:42:34.134Z,70.45
2023-01-20T05:45:01.643Z,71.40
2023-01-20T05:47:29.667Z,74.47
2023-01-20T05:49:57.338Z,84.32
2023-01-20T05:52:24.823Z,85.88
2023-01-20T05:54:52.358Z,78.40
2023-01-20T05:57:19.834Z,88.03
2023-01-20T05:59:48.449Z,79.63
2023-01-20T06:02:18.769Z,81.57
2023-01-20T06:04:49.763Z,80.03
2023-01-20T06:07:17.265Z,74.85
2023-01-20T06:09:44.773Z,79.78
2023-01-20T06:12:12.305Z,76.88
2023-01-20T06:14:39.809Z,77.43
2023-01-20T06:17:07.351Z,78.55
2023-01-20T06:19:34.894Z,81.60
2023-01-20T06:22:02.483Z,79.40
2023-01-20T06:24:29.978Z,73.80
2023-01-20T06:26:57.463Z,70.93
2023-01-20T06:29:25.022Z,80.05
2023-01-20T06:31:52.634Z,78.35
2023-01-20T06:34:20.158Z,85.68
2023-01-20T06:36:47.652Z,82.60
2023-01-20T06:39:15.206Z,81.80
2023-01-20T06:41:42.697Z,77.35
2023-01-20T06:44:10.210Z,86.97
2023-01-20T06:46:37.755Z,88.60
2023-01-20T06:49:05.294Z,86.03
2023-01-20T06:51:33.439Z,84.70
2023-01-20T06:54:00.956Z,85.60
2023-01-20T06:56:28.486Z,82.47
2023-01-20T06:58:56.115Z,81.95
2023-01-20T07:01:26.338Z,92.32
2023-01-20T07:03:54.816Z,81.22
2023-01-20T07:06:38.324Z,79.50
2023-01-20T07:09:08.740Z,79.82
2023-01-20T07:11:36.348Z,78.10
2023-01-20T07:14:05.530Z,76.10
2023-01-20T07:16:33.676Z,83.55
2023-01-20T07:19:01.750Z,75.15
2023-01-20T07:21:29.792Z,77.82
2023-01-20T07:23:57.444Z,66.97
2023-01-20T07:26:26.569Z,82.82
2023-01-20T07:28:54.397Z,67.80
2023-01-20T07:31:25.009Z,65.20
2023-01-20T07:33:53.429Z,72.25
2023-01-20T07:36:21.185Z,75.90
2023-01-20T07:38:52.220Z,72.95
2023-01-20T07:41:20.724Z,72.28
2023-01-20T07:43:51.465Z,64.18
2023-01-20T07:46:20.145Z,72.07
2023-01-20T07:48:47.980Z,71.90
2023-01-20T07:51:16.821Z,72.75
2023-01-20T07:53:46.881Z,63.40
2023-01-20T07:56:35.062Z,61.78
2023-01-20T07:59:03.075Z,67.60
2023-01-20T08:01:32.641Z,69.95
2023-01-20T08:04:01.493Z,56.78
2023-01-20T08:06:30.191Z,61.13
2023-01-20T08:09:02.190Z,63.50
2023-01-20T08:11:32.044Z,68.22
2023-01-20T08:13:59.987Z,55.45
2023-01-20T08:16:27.593Z,58.20
2023-01-20T08:18:55.583Z,58.30
2023-01-20T08:21:26.176Z,58.40
2023-01-20T08:23:56.571Z,63.22
2023-01-20T08:26:25.686Z,57.13
2023-01-20T08:28:53.426Z,53.92
2023-01-20T08:31:24.237Z,52.60
2023-01-20T08:33:56.230Z,50.10
2023-01-20T08:36:27.637Z,78.97
2023-01-20T08:38:57.198Z,55.25
2023-01-20T08:41:28.590Z,55.38
2023-01-20T08:43:58.904Z,46.83
2023-01-20T08:46:26.650Z,48.67
2023-01-20T08:48:56.201Z,47.70
2023-01-20T08:51:29.601Z,52.85
2023-01-20T08:53:57.344Z,44.30
2023-01-20T08:56:25.103Z,47.45
2023-01-20T08:58:53.998Z,42.55
2023-01-20T09:01:25.408Z,47.78
2023-01-20T09:04:04.860Z,50.93
2023-01-20T09:06:48.294Z,42.45
2023-01-20T09:11:50.860Z,40.45
2023-01-20T09:14:22.576Z,42.38
2023-01-20T09:16:50.337Z,32.78
2023-01-20T09:19:18.148Z,44.67
2023-01-20T09:21:45.879Z,42.30
2023-01-20T09:24:13.814Z,38.65
2023-01-20T09:26:41.917Z,44.05
2023-01-20T09:29:14.641Z,41.67
2023-01-20T09:31:50.119Z,35.92
2023-01-20T09:34:23.189Z,36.50
2023-01-20T09:37:19.255Z,37.47
2023-01-20T09:40:04.926Z,38.67
2023-01-20T09:42:53.343Z,43.28
2023-01-20T09:45:26.518Z,39.63
2023-01-20T09:48:14.155Z,38.38
2023-01-20T09:51:14.686Z,35.85
2023-01-20T09:53:55.575Z,33.80
2023-01-20T09:56:27.090Z,46.15
2023-01-20T09:59:06.472Z,38.97
2023-01-20T10:01:49.654Z,37.10
2023-01-20T10:04:25.391Z,37.75
2023-01-20T10:06:57.984Z,31.42
2023-01-20T10:09:47.097Z,32.85
2023-01-20T10:12:26.681Z,26.75
2023-01-20T10:15:07.439Z,35.25
2023-01-20T10:17:39.317Z,31.27
2023-01-20T10:20:36.184Z,29.00
2023-01-20T10:23:21.427Z,25.33
2023-01-20T10:25:58.701Z,27.02
2023-01-20T10:28:29.723Z,24.42
2023-01-20T10:30:59.688Z,26.98
2023-01-20T10:33:31.936Z,26.55
2023-01-20T10:36:01.439Z,34.78
2023-01-20T10:38:58.025Z,23.38
2023-01-20T10:41:51.604Z,23.55
2023-01-20T10:44:19.310Z,33.88
2023-01-20T10:47:03.806Z,29.77
2023-01-20T10:49:31.308Z,26.67
2023-01-20T10:52:36.433Z,21.20
2023-01-20T10:55:30.104Z,27.20
2023-01-20T10:58:15.285Z,18.75
2023-01-20T11:00:44.377Z,21.95
2023-01-20T11:03:19.973Z,20.02
2023-01-20T11:05:50.110Z,18.13
2023-01-20T11:08:25.059Z,16.48
2023-01-20T11:10:57.477Z,18.17
2023-01-20T11:15:56.371Z,18.80
2023-01-20T11:18:30.557Z,17.02
2023-01-20T11:21:10.350Z,18.05
2023-01-20T11:23:48.464Z,12.27
2023-01-20T11:26:35.714Z,14.90
2023-01-20T11:29:12.098Z,19.02
2023-01-20T11:31:50.595Z,17.90
2023-01-20T11:34:26.578Z,10.65
2023-01-20T11:37:18.905Z,13.15
2023-01-20T11:40:00.408Z,8.25
2023-01-20T11:42:31.327Z,9.02
2023-01-20T11:45:21.529Z,11.27
2023-01-20T11:48:21.676Z,9.82
2023-01-20T11:50:58.480Z,12.48
2023-01-20T11:53:33.348Z,11.88
2023-01-20T11:56:15.552Z,19.80
2023-01-20T11:59:01.943Z,11.50
2023-01-20T12:01:31.555Z,13.18
2023-01-20T12:04:33.142Z,14.07
2023-01-20T12:07:18.602Z,14.90
2023-01-20T12:09:50.403Z,14.20
2023-01-20T12:12:46.235Z,14.52
2023-01-20T12:15:20.842Z,16.33
2023-01-20T12:18:01.488Z,15.25
2023-01-20T12:20:54.062Z,15.00
2023-01-20T12:23:30.255Z,20.33
2023-01-20T12:26:07.907Z,23.00
2023-01-20T12:28:39.231Z,17.20
2023-01-20T12:31:10.580Z,15.85
2023-01-20T12:33:46.172Z,15.00
2023-01-20T12:36:33.180Z,17.17
2023-01-20T12:39:27.097Z,14.90
2023-01-20T12:42:06.997Z,17.85
2023-01-20T12:44:59.796Z,22.38
2023-01-20T12:50:16.311Z,17.70
2023-01-20T12:52:53.507Z,25.38
2023-01-20T12:55:30.653Z,17.92
2023-01-20T12:58:18.261Z,14.20
2023-01-20T13:01:09.828Z,18.52
2023-01-20T13:03:56.896Z,20.17
2023-01-20T13:06:33.559Z,21.13
2023-01-20T13:09:26.340Z,25.60
2023-01-20T13:12:07.976Z,26.33
2023-01-20T13:14:49.096Z,19.97
2023-01-20T13:17:36.667Z,24.58
2023-01-20T13:20:06.047Z,24.65
2023-01-20T13:22:34.933Z,35.88
2023-01-20T13:25:04.961Z,25.70
2023-01-20T13:27:38.612Z,27.95
2023-01-20T13:30:09.259Z,25.58
2023-01-20T13:32:49.731Z,27.30
2023-01-20T13:35:29.213Z,23.15
2023-01-20T13:38:00.367Z,28.00
2023-01-20T13:40:36.998Z,24.52
2023-01-20T13:43:18.242Z,29.08
2023-01-20T13:45:46.672Z,28.90
2023-01-20T13:48:14.540Z,29.60
2023-01-20T13:50:47.870Z,25.00
2023-01-20T13:53:36.125Z,28.10
2023-01-20T13:56:03.898Z,30.20
2023-01-20T13:58:35.072Z,25.08
2023-01-20T14:01:09.078Z,26.38
2023-01-20T14:03:40.789Z,28.20
2023-01-20T14:06:11.622Z,27.02
2023-01-20T14:08:51.202Z,27.90
2023-01-20T14:11:21.828Z,25.90
2023-01-20T14:14:01.836Z,26.42
2023-01-20T14:16:35.445Z,30.77
2023-01-20T14:19:17.114Z,27.92
2023-01-20T14:21:44.999Z,25.03
2023-01-20T14:24:36.149Z,29.08
2023-01-20T14:27:21.062Z,23.77
2023-01-20T14:29:50.988Z,28.70
2023-01-20T14:32:24.597Z,24.20
2023-01-20T14:34:53.459Z,28.75
2023-01-20T14:37:34.342Z,22.40
2023-01-20T14:40:09.294Z,25.20
2023-01-20T14:42:38.678Z,25.67
2023-01-20T14:45:33.979Z,18.98
2023-01-20T14:48:03.377Z,28.42
2023-01-20T14:50:31.251Z,24.58
2023-01-20T14:52:59.042Z,23.65
2023-01-20T14:55:35.489Z,25.70
2023-01-20T14:58:09.815Z,28.38
2023-01-20T15:00:52.794Z,24.27
2023-01-20T15:03:23.932Z,23.80
2023-01-20T15:06:00.707Z,26.45
2023-01-20T15:08:34.156Z,23.48
2023-01-20T15:11:18.499Z,26.40
2023-01-20T15:14:01.272Z,23.55
2023-01-20T15:16:43.991Z,20.80
2023-01-20T15:19:14.444Z,25.60
2023-01-20T15:21:46.027Z,24.77
2023-01-20T15:24:16.503Z,21.95
2023-01-20T15:26:44.913Z,25.92
2023-01-20T15:29:35.814Z,23.98
2023-01-20T15:32:11.611Z,23.58
2023-01-20T15:34:39.281Z,23.40
2023-01-20T15:37:19.523Z,25.42
2023-01-20T15:39:47.549Z,22.10
2023-01-20T15:42:15.409Z,24.52
2023-01-20T15:44:42.971Z,20.88
2023-01-20T15:47:31.238Z,24.13
2023-01-20T15:49:59.389Z,22.17
2023-01-20T15:52:27.288Z,22.38
2023-01-20T15:54:55.270Z,19.90
2023-01-20T15:57:22.782Z,27.40
2023-01-20T15:59:50.343Z,25.52
2023-01-20T16:02:20.810Z,24.63
2023-01-20T16:04:48.445Z,27.38
2023-01-20T16:07:21.393Z,26.60
2023-01-20T16:09:49.264Z,25.88
2023-01-20T16:12:19.168Z,22.10
2023-01-20T16:14:47.459Z,21.50
2023-01-20T16:17:21.799Z,22.85
2023-01-20T16:19:50.765Z,20.20
2023-01-20T16:22:18.859Z,21.05
2023-01-20T16:24:49.222Z,17.83
2023-01-20T16:27:22.878Z,21.08
2023-01-20T16:29:51.353Z,17.25
2023-01-20T16:32:22.321Z,19.75
2023-01-20T16:34:50.608Z,20.48
2023-01-20T16:37:18.440Z,19.98
2023-01-20T16:39:46.611Z,21.17
2023-01-20T16:42:16.943Z,23.70
2023-01-20T16:44:45.002Z,21.67
2023-01-20T16:47:12.977Z,25.40
2023-01-20T16:49:40.960Z,23.80
2023-01-20T16:52:09.020Z,21.75
2023-01-20T16:54:37.291Z,22.58
2023-01-20T16:57:05.159Z,23.92
2023-01-20T16:59:33.129Z,23.13
2023-01-20T17:02:01.272Z,22.63
2023-01-20T17:04:29.791Z,25.75
2023-01-20T17:06:57.776Z,24.95
2023-01-20T17:09:25.839Z,24.23
2023-01-20T17:11:53.902Z,23.58
2023-01-20T17:14:21.976Z,22.17
2023-01-20T17:16:50.202Z,20.05
2023-01-20T17:19:18.118Z,26.08
2023-01-20T17:21:48.976Z,22.85
2023-01-20T17:24:17.956Z,22.25
2023-01-20T17:26:46.245Z,24.55
2023-01-20T17:29:14.300Z,23.10
2023-01-20T17:31:43.069Z,21.80
2023-01-20T17:34:12.595Z,23.77
2023-01-20T17:36:40.605Z,22.30
2023-01-20T17:39:09.270Z,24.33
2023-01-20T17:41:37.222Z,29.15
2023-01-20T17:44:07.014Z,26.02
2023-01-20T17:46:37.211Z,24.73
2023-01-20T17:49:06.841Z,27.00
2023-01-20T17:51:35.688Z,26.55
2023-01-20T17:54:04.283Z,23.98
2023-01-20T17:56:32.780Z,28.08
2023-01-20T17:59:00.357Z,26.38
2023-01-20T18:01:32.538Z,25.70
2023-01-20T18:04:01.317Z,26.25
2023-01-20T18:06:30.661Z,26.58
2023-01-20T18:09:01.618Z,34.33
2023-01-20T18:11:32.527Z,28.80
2023-01-20T18:14:01.844Z,32.75
2023-01-20T18:16:32.938Z,35.75
2023-01-20T18:19:00.853Z,36.50
2023-01-20T18:21:31.169Z,36.05
2023-01-20T18:23:59.664Z,39.60
2023-01-20T18:26:30.490Z,36.65
2023-01-20T18:29:00.196Z,39.03
2023-01-20T18:31:29.668Z,37.88
2023-01-20T18:33:59.548Z,39.90
2023-01-20T18:36:30.092Z,39.47
2023-01-20T18:39:09.039Z,45.78
2023-01-20T18:41:37.925Z,58.45
2023-01-20T18:44:06.348Z,118.40
2023-01-20T18:46:35.640Z,90.70
2023-01-20T18:49:03.477Z,58.58
2023-01-20T18:51:31.832Z,48.90
2023-01-20T18:54:05.831Z,52.47
2023-01-20T18:56:35.074Z,49.30
2023-01-20T18:59:03.958Z,51.80
2023-01-20T19:01:34.673Z,49.55
2023-01-20T19:04:03.627Z,48.92
2023-01-20T19:06:34.336Z,51.72
2023-01-20T19:09:02.800Z,62.60
2023-01-20T19:11:32.737Z,51.75
2023-01-20T19:14:00.679Z,58.83
2023-01-20T19:16:32.487Z,54.95
2023-01-20T19:19:02.928Z,51.60
2023-01-20T19:21:32.543Z,59.65
2023-01-20T19:24:05.729Z,61.00
2023-01-20T19:26:36.105Z,65.05
2023-01-20T19:29:06.900Z,65.80
2023-01-20T19:31:37.175Z,64.68
2023-01-20T19:34:05.253Z,59.60
2023-01-20T19:36:33.019Z,60.55
2023-01-20T19:39:01.036Z,66.18
2023-01-20T19:41:33.243Z,56.90
2023-01-20T19:44:03.199Z,54.95
2023-01-20T19:46:33.222Z,57.30
2023-01-20T19:49:02.242Z,53.05
2023-01-20T19:51:31.319Z,58.33
2023-01-20T19:54:00.813Z,56.13
2023-01-20T19:56:30.895Z,55.72
2023-01-20T19:59:00.640Z,52.80
2023-01-20T20:01:31.779Z,66.22
2023-01-20T20:04:00.260Z,56.72
2023-01-20T20:06:35.226Z,60.95
2023-01-20T20:09:08.366Z,64.25
2023-01-20T20:11:36.262Z,62.90
2023-01-20T20:14:05.764Z,57.67
2023-01-20T20:16:36.516Z,57.20
2023-01-20T20:19:04.717Z,59.63
2023-01-20T20:21:32.327Z,57.00
2023-01-20T20:24:01.554Z,51.70
2023-01-20T20:26:31.693Z,55.63
2023-01-20T20:29:00.176Z,58.00
2023-01-20T20:31:29.524Z,53.85
2023-01-20T20:33:58.280Z,57.30
2023-01-20T20:36:28.402Z,58.50
2023-01-20T20:38:58.365Z,54.53
2023-01-20T20:41:29.059Z,57.30
2023-01-20T20:43:58.224Z,64.00
2023-01-20T20:46:26.360Z,51.95
2023-01-20T20:48:55.607Z,60.60
2023-01-20T20:51:24.458Z,61.70
2023-01-20T20:53:55.686Z,63.00
2023-01-20T20:56:24.564Z,51.75
2023-01-20T20:59:01.539Z,51.88
2023-01-20T21:01:32.701Z,49.42
2023-01-20T21:04:00.610Z,62.65
2023-01-20T21:06:29.262Z,53.30
2023-01-20T21:08:57.068Z,56.70
2023-01-20T21:11:25.019Z,49.88
2023-01-20T21:13:53.705Z,54.08
2023-01-20T21:16:23.106Z,56.97
2023-01-20T21:18:53.024Z,45.85
2023-01-20T21:21:21.156Z,59.03
2023-01-20T21:23:53.189Z,61.42
2023-01-20T21:26:23.136Z,49.70
2023-01-20T21:28:50.776Z,54.72
2023-01-20T21:31:25.948Z,54.95
2023-01-20T21:33:57.022Z,59.20
2023-01-20T21:36:25.207Z,55.55
2023-01-20T21:38:53.231Z,54.22
2023-01-20T21:41:21.445Z,49.05
2023-01-20T21:44:07.263Z,47.95
2023-01-20T21:46:40.275Z,57.72
2023-01-20T21:49:26.889Z,51.78
2023-01-20T21:52:13.458Z,55.83
2023-01-20T21:54:41.366Z,53.25
2023-01-20T21:57:09.405Z,58.20
2023-01-20T21:59:37.455Z,54.45
2023-01-20T22:02:05.132Z,50.35
2023-01-20T22:04:33.355Z,58.30
2023-01-20T22:07:01.408Z,53.95
2023-01-20T22:09:28.904Z,58.33
2023-01-20T22:11:56.445Z,61.95
2023-01-20T22:14:23.985Z,59.17
2023-01-20T22:16:51.607Z,62.67
2023-01-20T22:19:19.192Z,60.42
2023-01-20T22:21:46.716Z,55.20
2023-01-20T22:24:14.347Z,55.55
2023-01-20T22:26:41.852Z,60.00
2023-01-20T22:29:09.473Z,57.72
2023-01-20T22:31:37.214Z,59.25
2023-01-20T22:34:06.272Z,57.08
2023-01-20T22:36:34.770Z,52.67
2023-01-20T22:39:03.209Z,64.00
2023-01-20T22:41:31.137Z,56.53
2023-01-20T22:43:59.473Z,62.17
2023-01-20T22:46:29.338Z,57.35
2023-01-20T22:48:58.616Z,54.60
2023-01-20T22:51:30.491Z,53.33
2023-01-20T22:54:04.150Z,50.92
2023-01-20T22:56:36.203Z,58.35
2023-01-20T22:59:03.873Z,62.75
2023-01-20T23:01:34.060Z,58.72
2023-01-20T23:04:04.747Z,60.17
2023-01-20T23:06:34.918Z,66.88
2023-01-20T23:09:06.097Z,63.17
2023-01-20T23:11:40.149Z,59.25
2023-01-20T23:14:10.683Z,64.18
2023-01-20T23:16:38.558Z,64.63
2023-01-20T23:19:06.634Z,63.47
2023-01-20T23:21:34.424Z,63.92
2023-01-20T23:24:02.382Z,58.10
2023-01-20T23:26:31.458Z,61.78
2023-01-20T23:28:59.491Z,65.22
2023-01-20T23:31:28.596Z,64.70
2023-01-20T23:33:56.223Z,63.63
2023-01-20T23:36:26.972Z,64.70
2023-01-20T23:38:56.333Z,58.88
2023-01-20T23:41:24.842Z,56.88
2023-01-20T23:43:52.877Z,60.47
2023-01-20T23:46:20.783Z,57.78
2023-01-20T23:48:49.179Z,56.90
2023-01-20T23:51:19.334Z,59.95
2023-01-20T23:53:46.976Z,63.30
2023-01-20T23:56:20.353Z,55.35
2023-01-20T23:58:48.616Z,66.15
